EBBE

Beauvechain Air Base Airport

Beauvechain, Belgium
METAR EBBE 171825Z AUTO 34006KT 9999 NCD 14/12 Q1020 BLU
Observed Flight Rules
Oct-17 @ 18:25 UTC (39 minutes ago) Visual Flight Rules
Wind Visibility Clouds
340° at 6 knots 10,000+ meters
  • Clear skies
Temperatures Readings
Current 14°C / 57°F
Dewpoint 12°C / 54°F
Humidity 88%
Altimeter 30.12" Hg
Pressure 1020 hPa
Elevation 127
METAR EBBE 171825Z AUTO 34006KT 9999 NCD 14/12 Q1020 BLU
Observed Flight Rules
Oct-17 @ 18:25 UTC
(39 minutes ago)
VFR
Wind Visibility
340° at 6 knots 10,000+ meters
Clouds
  • Clear skies
Temperature Dewpoint
14°C / 57°F 12°C / 54°F
Humidity Altimeter Pressure
88% 30.12" Hg 1020 hPa